sensor_id;sensor_type;location;lat;lon;timestamp;P1;durP1;ratioP1;P2;durP2;ratioP2
20709;SDS011;10516;51.518;9.864;2023-12-22T00:01:20;39.97;;;8.05;;
20709;SDS011;10516;51.518;9.864;2023-12-22T00:03:46;35.35;;;6.78;;
20709;SDS011;10516;51.518;9.864;2023-12-22T00:06:11;35.33;;;5.75;;
20709;SDS011;10516;51.518;9.864;2023-12-22T00:08:37;30.98;;;5.70;;
20709;SDS011;10516;51.518;9.864;2023-12-22T00:11:03;28.92;;;6.78;;
20709;SDS011;10516;51.518;9.864;2023-12-22T00:13:28;29.58;;;5.22;;
20709;SDS011;10516;51.518;9.864;2023-12-22T00:15:54;19.77;;;3.60;;
20709;SDS011;10516;51.518;9.864;2023-12-22T00:18:19;35.95;;;6.70;;
20709;SDS011;10516;51.518;9.864;2023-12-22T00:20:44;40.47;;;5.70;;
20709;SDS011;10516;51.518;9.864;2023-12-22T00:23:10;26.70;;;5.38;;
20709;SDS011;10516;51.518;9.864;2023-12-22T00:25:35;22.00;;;5.90;;
20709;SDS011;10516;51.518;9.864;2023-12-22T00:28:00;33.80;;;6.72;;
20709;SDS011;10516;51.518;9.864;2023-12-22T00:30:26;19.70;;;5.47;;
20709;SDS011;10516;51.518;9.864;2023-12-22T00:32:51;29.23;;;5.00;;
20709;SDS011;10516;51.518;9.864;2023-12-22T00:35:16;17.65;;;4.07;;
20709;SDS011;10516;51.518;9.864;2023-12-22T00:37:42;19.95;;;6.28;;
20709;SDS011;10516;51.518;9.864;2023-12-22T00:40:07;24.45;;;5.22;;
20709;SDS011;10516;51.518;9.864;2023-12-22T00:42:34;27.73;;;6.80;;
20709;SDS011;10516;51.518;9.864;2023-12-22T00:45:00;23.80;;;6.03;;
20709;SDS011;10516;51.518;9.864;2023-12-22T00:47:25;21.73;;;5.55;;
20709;SDS011;10516;51.518;9.864;2023-12-22T00:49:50;33.88;;;4.68;;
20709;SDS011;10516;51.518;9.864;2023-12-22T00:52:16;29.85;;;5.68;;
20709;SDS011;10516;51.518;9.864;2023-12-22T00:54:41;35.30;;;5.40;;
20709;SDS011;10516;51.518;9.864;2023-12-22T00:57:07;22.00;;;5.72;;
20709;SDS011;10516;51.518;9.864;2023-12-22T00:59:32;22.98;;;4.95;;
20709;SDS011;10516;51.518;9.864;2023-12-22T01:01:57;25.17;;;6.20;;
20709;SDS011;10516;51.518;9.864;2023-12-22T01:04:23;27.23;;;4.97;;
20709;SDS011;10516;51.518;9.864;2023-12-22T01:06:48;24.20;;;5.95;;
20709;SDS011;10516;51.518;9.864;2023-12-22T01:09:13;23.67;;;4.15;;
20709;SDS011;10516;51.518;9.864;2023-12-22T01:11:40;23.52;;;4.18;;
20709;SDS011;10516;51.518;9.864;2023-12-22T01:14:05;24.13;;;4.50;;
20709;SDS011;10516;51.518;9.864;2023-12-22T01:16:32;15.25;;;3.95;;
20709;SDS011;10516;51.518;9.864;2023-12-22T01:18:57;21.75;;;7.35;;
20709;SDS011;10516;51.518;9.864;2023-12-22T01:21:23;28.58;;;6.07;;
20709;SDS011;10516;51.518;9.864;2023-12-22T01:23:48;32.20;;;5.13;;
20709;SDS011;10516;51.518;9.864;2023-12-22T01:26:14;29.00;;;4.55;;
20709;SDS011;10516;51.518;9.864;2023-12-22T01:28:39;17.20;;;3.33;;
20709;SDS011;10516;51.518;9.864;2023-12-22T01:31:04;19.95;;;5.47;;
20709;SDS011;10516;51.518;9.864;2023-12-22T01:33:30;19.45;;;4.93;;
20709;SDS011;10516;51.518;9.864;2023-12-22T01:35:55;17.08;;;4.82;;
20709;SDS011;10516;51.518;9.864;2023-12-22T01:38:20;24.20;;;5.60;;
20709;SDS011;10516;51.518;9.864;2023-12-22T01:40:46;24.83;;;4.15;;
20709;SDS011;10516;51.518;9.864;2023-12-22T01:43:12;11.38;;;3.45;;
20709;SDS011;10516;51.518;9.864;2023-12-22T01:45:38;23.63;;;3.78;;
20709;SDS011;10516;51.518;9.864;2023-12-22T01:48:04;12.68;;;3.25;;
20709;SDS011;10516;51.518;9.864;2023-12-22T01:50:29;20.77;;;4.00;;
20709;SDS011;10516;51.518;9.864;2023-12-22T01:52:55;29.25;;;3.20;;
20709;SDS011;10516;51.518;9.864;2023-12-22T01:55:21;18.33;;;2.85;;
20709;SDS011;10516;51.518;9.864;2023-12-22T01:57:46;18.75;;;3.28;;
20709;SDS011;10516;51.518;9.864;2023-12-22T02:00:14;16.52;;;3.28;;
20709;SDS011;10516;51.518;9.864;2023-12-22T02:02:40;14.98;;;3.15;;
20709;SDS011;10516;51.518;9.864;2023-12-22T02:05:08;18.27;;;4.45;;
20709;SDS011;10516;51.518;9.864;2023-12-22T02:07:36;14.18;;;4.03;;
20709;SDS011;10516;51.518;9.864;2023-12-22T02:10:05;17.58;;;3.53;;
20709;SDS011;10516;51.518;9.864;2023-12-22T02:12:31;21.80;;;3.88;;
20709;SDS011;10516;51.518;9.864;2023-12-22T02:14:57;20.05;;;3.75;;
20709;SDS011;10516;51.518;9.864;2023-12-22T02:17:26;14.32;;;3.33;;
20709;SDS011;10516;51.518;9.864;2023-12-22T02:19:57;13.02;;;5.68;;
20709;SDS011;10516;51.518;9.864;2023-12-22T02:22:23;17.55;;;6.50;;
20709;SDS011;10516;51.518;9.864;2023-12-22T02:24:49;15.40;;;3.88;;
20709;SDS011;10516;51.518;9.864;2023-12-22T02:29:52;27.85;;;4.80;;
20709;SDS011;10516;51.518;9.864;2023-12-22T02:32:24;22.80;;;4.07;;
20709;SDS011;10516;51.518;9.864;2023-12-22T02:34:55;18.38;;;3.10;;
20709;SDS011;10516;51.518;9.864;2023-12-22T02:37:21;16.33;;;4.85;;
20709;SDS011;10516;51.518;9.864;2023-12-22T02:39:49;8.15;;;1.65;;
20709;SDS011;10516;51.518;9.864;2023-12-22T02:42:16;12.70;;;2.40;;
20709;SDS011;10516;51.518;9.864;2023-12-22T02:44:44;3.33;;;1.92;;
20709;SDS011;10516;51.518;9.864;2023-12-22T02:47:10;5.57;;;0.90;;
20709;SDS011;10516;51.518;9.864;2023-12-22T02:49:35;9.75;;;1.50;;
20709;SDS011;10516;51.518;9.864;2023-12-22T02:52:01;4.40;;;1.65;;
20709;SDS011;10516;51.518;9.864;2023-12-22T02:54:26;1.75;;;1.33;;
20709;SDS011;10516;51.518;9.864;2023-12-22T02:56:54;3.97;;;1.25;;
20709;SDS011;10516;51.518;9.864;2023-12-22T02:59:20;4.15;;;1.63;;
20709;SDS011;10516;51.518;9.864;2023-12-22T03:01:45;7.95;;;1.67;;
20709;SDS011;10516;51.518;9.864;2023-12-22T03:04:11;5.85;;;1.40;;
20709;SDS011;10516;51.518;9.864;2023-12-22T03:06:36;7.03;;;1.27;;
20709;SDS011;10516;51.518;9.864;2023-12-22T03:09:01;6.50;;;1.90;;
20709;SDS011;10516;51.518;9.864;2023-12-22T03:11:27;4.32;;;1.90;;
20709;SDS011;10516;51.518;9.864;2023-12-22T03:13:53;6.72;;;2.28;;
20709;SDS011;10516;51.518;9.864;2023-12-22T03:16:18;8.27;;;1.67;;
20709;SDS011;10516;51.518;9.864;2023-12-22T03:18:43;14.23;;;2.83;;
20709;SDS011;10516;51.518;9.864;2023-12-22T03:21:15;11.55;;;2.10;;
20709;SDS011;10516;51.518;9.864;2023-12-22T03:23:42;9.43;;;1.95;;
20709;SDS011;10516;51.518;9.864;2023-12-22T03:26:07;28.48;;;3.00;;
20709;SDS011;10516;51.518;9.864;2023-12-22T03:28:32;23.15;;;3.78;;
20709;SDS011;10516;51.518;9.864;2023-12-22T03:30:58;10.77;;;2.47;;
20709;SDS011;10516;51.518;9.864;2023-12-22T03:33:24;20.85;;;4.00;;
20709;SDS011;10516;51.518;9.864;2023-12-22T03:35:49;12.35;;;2.58;;
20709;SDS011;10516;51.518;9.864;2023-12-22T03:38:15;18.50;;;3.47;;
20709;SDS011;10516;51.518;9.864;2023-12-22T03:40:40;15.45;;;3.38;;
20709;SDS011;10516;51.518;9.864;2023-12-22T03:43:05;10.75;;;3.03;;
20709;SDS011;10516;51.518;9.864;2023-12-22T03:45:31;14.60;;;3.28;;
20709;SDS011;10516;51.518;9.864;2023-12-22T03:47:56;14.90;;;3.88;;
20709;SDS011;10516;51.518;9.864;2023-12-22T03:50:22;19.67;;;4.07;;
20709;SDS011;10516;51.518;9.864;2023-12-22T03:52:47;13.55;;;3.92;;
20709;SDS011;10516;51.518;9.864;2023-12-22T03:55:12;18.52;;;3.30;;
20709;SDS011;10516;51.518;9.864;2023-12-22T03:57:38;15.98;;;3.35;;
20709;SDS011;10516;51.518;9.864;2023-12-22T04:00:03;9.90;;;2.13;;
20709;SDS011;10516;51.518;9.864;2023-12-22T04:02:29;10.98;;;3.00;;
20709;SDS011;10516;51.518;9.864;2023-12-22T04:04:54;17.05;;;4.07;;
20709;SDS011;10516;51.518;9.864;2023-12-22T04:07:20;18.85;;;3.30;;
20709;SDS011;10516;51.518;9.864;2023-12-22T04:09:45;13.45;;;3.35;;
20709;SDS011;10516;51.518;9.864;2023-12-22T04:12:10;12.10;;;3.20;;
20709;SDS011;10516;51.518;9.864;2023-12-22T04:14:36;19.00;;;2.70;;
20709;SDS011;10516;51.518;9.864;2023-12-22T04:17:01;10.20;;;4.10;;
20709;SDS011;10516;51.518;9.864;2023-12-22T04:19:26;16.67;;;3.35;;
20709;SDS011;10516;51.518;9.864;2023-12-22T04:21:52;15.65;;;3.65;;
20709;SDS011;10516;51.518;9.864;2023-12-22T04:24:17;26.40;;;4.82;;
20709;SDS011;10516;51.518;9.864;2023-12-22T04:26:42;18.25;;;3.60;;
20709;SDS011;10516;51.518;9.864;2023-12-22T04:29:08;24.00;;;3.83;;
20709;SDS011;10516;51.518;9.864;2023-12-22T04:31:33;17.75;;;3.70;;
20709;SDS011;10516;51.518;9.864;2023-12-22T04:33:58;18.00;;;4.25;;
20709;SDS011;10516;51.518;9.864;2023-12-22T04:36:24;17.50;;;3.33;;
20709;SDS011;10516;51.518;9.864;2023-12-22T04:38:49;14.82;;;3.33;;
20709;SDS011;10516;51.518;9.864;2023-12-22T04:41:15;11.43;;;3.30;;
20709;SDS011;10516;51.518;9.864;2023-12-22T04:43:40;21.00;;;3.50;;
20709;SDS011;10516;51.518;9.864;2023-12-22T04:46:05;17.50;;;3.90;;
20709;SDS011;10516;51.518;9.864;2023-12-22T04:48:31;20.80;;;3.65;;
20709;SDS011;10516;51.518;9.864;2023-12-22T04:50:58;20.70;;;3.50;;
20709;SDS011;10516;51.518;9.864;2023-12-22T04:53:23;14.85;;;3.22;;
20709;SDS011;10516;51.518;9.864;2023-12-22T04:55:49;20.80;;;5.97;;
20709;SDS011;10516;51.518;9.864;2023-12-22T04:58:14;17.65;;;4.68;;
20709;SDS011;10516;51.518;9.864;2023-12-22T05:00:39;26.48;;;3.83;;
20709;SDS011;10516;51.518;9.864;2023-12-22T05:03:05;21.23;;;4.35;;
20709;SDS011;10516;51.518;9.864;2023-12-22T05:05:30;21.77;;;3.72;;
20709;SDS011;10516;51.518;9.864;2023-12-22T05:07:55;11.73;;;3.42;;
20709;SDS011;10516;51.518;9.864;2023-12-22T05:10:22;14.30;;;3.20;;
20709;SDS011;10516;51.518;9.864;2023-12-22T05:12:47;13.15;;;2.78;;
20709;SDS011;10516;51.518;9.864;2023-12-22T05:15:12;11.13;;;2.95;;
20709;SDS011;10516;51.518;9.864;2023-12-22T05:17:38;8.68;;;2.88;;
20709;SDS011;10516;51.518;9.864;2023-12-22T05:20:05;14.38;;;2.53;;
20709;SDS011;10516;51.518;9.864;2023-12-22T05:22:31;7.30;;;2.15;;
20709;SDS011;10516;51.518;9.864;2023-12-22T05:24:57;10.23;;;2.40;;
20709;SDS011;10516;51.518;9.864;2023-12-22T05:27:23;15.25;;;2.55;;
20709;SDS011;10516;51.518;9.864;2023-12-22T05:29:48;9.82;;;2.15;;
20709;SDS011;10516;51.518;9.864;2023-12-22T05:32:14;3.13;;;0.82;;
20709;SDS011;10516;51.518;9.864;2023-12-22T05:34:39;4.22;;;1.13;;
20709;SDS011;10516;51.518;9.864;2023-12-22T05:37:04;6.93;;;1.75;;
20709;SDS011;10516;51.518;9.864;2023-12-22T05:39:29;0.90;;;0.82;;
20709;SDS011;10516;51.518;9.864;2023-12-22T05:41:55;4.40;;;0.98;;
20709;SDS011;10516;51.518;9.864;2023-12-22T05:44:20;4.15;;;1.92;;
20709;SDS011;10516;51.518;9.864;2023-12-22T05:46:47;4.88;;;1.10;;
20709;SDS011;10516;51.518;9.864;2023-12-22T05:49:12;3.58;;;1.25;;
20709;SDS011;10516;51.518;9.864;2023-12-22T05:51:38;20.00;;;2.33;;
20709;SDS011;10516;51.518;9.864;2023-12-22T05:54:05;2.90;;;1.33;;
20709;SDS011;10516;51.518;9.864;2023-12-22T05:56:30;4.57;;;1.50;;
20709;SDS011;10516;51.518;9.864;2023-12-22T05:58:56;10.80;;;1.90;;
20709;SDS011;10516;51.518;9.864;2023-12-22T06:01:21;6.93;;;2.33;;
20709;SDS011;10516;51.518;9.864;2023-12-22T06:03:47;13.40;;;2.72;;
20709;SDS011;10516;51.518;9.864;2023-12-22T06:06:13;5.00;;;1.13;;
20709;SDS011;10516;51.518;9.864;2023-12-22T06:08:39;6.65;;;1.25;;
20709;SDS011;10516;51.518;9.864;2023-12-22T06:11:05;4.88;;;1.63;;
20709;SDS011;10516;51.518;9.864;2023-12-22T06:13:30;3.75;;;1.08;;
20709;SDS011;10516;51.518;9.864;2023-12-22T06:15:56;5.68;;;1.83;;
20709;SDS011;10516;51.518;9.864;2023-12-22T06:18:21;5.70;;;1.15;;
20709;SDS011;10516;51.518;9.864;2023-12-22T06:20:47;6.47;;;1.60;;
20709;SDS011;10516;51.518;9.864;2023-12-22T06:23:12;4.15;;;1.60;;
20709;SDS011;10516;51.518;9.864;2023-12-22T06:25:38;4.40;;;1.33;;
20709;SDS011;10516;51.518;9.864;2023-12-22T06:28:03;6.65;;;0.85;;
20709;SDS011;10516;51.518;9.864;2023-12-22T06:30:29;9.15;;;1.63;;
20709;SDS011;10516;51.518;9.864;2023-12-22T06:32:55;8.15;;;1.15;;
20709;SDS011;10516;51.518;9.864;2023-12-22T06:35:20;4.72;;;0.80;;
20709;SDS011;10516;51.518;9.864;2023-12-22T06:37:49;9.40;;;1.88;;
20709;SDS011;10516;51.518;9.864;2023-12-22T06:40:14;8.25;;;1.63;;
20709;SDS011;10516;51.518;9.864;2023-12-22T06:42:40;11.20;;;2.30;;
20709;SDS011;10516;51.518;9.864;2023-12-22T06:45:06;6.75;;;1.15;;
20709;SDS011;10516;51.518;9.864;2023-12-22T06:47:31;10.57;;;2.00;;
20709;SDS011;10516;51.518;9.864;2023-12-22T06:49:57;4.30;;;1.63;;
20709;SDS011;10516;51.518;9.864;2023-12-22T06:52:22;4.13;;;1.42;;
20709;SDS011;10516;51.518;9.864;2023-12-22T06:54:48;7.95;;;2.10;;
20709;SDS011;10516;51.518;9.864;2023-12-22T06:57:13;9.75;;;2.22;;
20709;SDS011;10516;51.518;9.864;2023-12-22T06:59:39;6.13;;;2.38;;
20709;SDS011;10516;51.518;9.864;2023-12-22T07:02:04;11.73;;;2.53;;
20709;SDS011;10516;51.518;9.864;2023-12-22T07:04:31;7.30;;;2.05;;
20709;SDS011;10516;51.518;9.864;2023-12-22T07:06:56;3.33;;;1.33;;
20709;SDS011;10516;51.518;9.864;2023-12-22T07:11:48;5.85;;;1.48;;
20709;SDS011;10516;51.518;9.864;2023-12-22T07:14:15;8.57;;;2.65;;
20709;SDS011;10516;51.518;9.864;2023-12-22T07:16:40;7.35;;;2.15;;
20709;SDS011;10516;51.518;9.864;2023-12-22T07:19:07;10.45;;;3.50;;
20709;SDS011;10516;51.518;9.864;2023-12-22T07:21:32;13.05;;;3.22;;
20709;SDS011;10516;51.518;9.864;2023-12-22T07:23:58;8.20;;;3.88;;
20709;SDS011;10516;51.518;9.864;2023-12-22T07:26:23;15.18;;;2.60;;
20709;SDS011;10516;51.518;9.864;2023-12-22T07:28:51;18.95;;;3.25;;
20709;SDS011;10516;51.518;9.864;2023-12-22T07:31:17;14.35;;;3.45;;
20709;SDS011;10516;51.518;9.864;2023-12-22T07:33:42;18.95;;;3.70;;
20709;SDS011;10516;51.518;9.864;2023-12-22T07:36:08;8.13;;;2.38;;
20709;SDS011;10516;51.518;9.864;2023-12-22T07:38:33;18.13;;;3.80;;
20709;SDS011;10516;51.518;9.864;2023-12-22T07:40:59;13.07;;;2.95;;
20709;SDS011;10516;51.518;9.864;2023-12-22T07:43:24;17.55;;;2.60;;
20709;SDS011;10516;51.518;9.864;2023-12-22T07:45:50;14.10;;;2.90;;
20709;SDS011;10516;51.518;9.864;2023-12-22T07:48:16;10.30;;;3.03;;
20709;SDS011;10516;51.518;9.864;2023-12-22T07:50:42;10.80;;;2.55;;
20709;SDS011;10516;51.518;9.864;2023-12-22T07:53:07;17.00;;;3.40;;
20709;SDS011;10516;51.518;9.864;2023-12-22T07:55:33;10.73;;;2.80;;
20709;SDS011;10516;51.518;9.864;2023-12-22T07:57:59;15.90;;;1.92;;
20709;SDS011;10516;51.518;9.864;2023-12-22T08:00:24;19.77;;;4.15;;
20709;SDS011;10516;51.518;9.864;2023-12-22T08:02:50;9.73;;;2.03;;
20709;SDS011;10516;51.518;9.864;2023-12-22T08:05:15;15.00;;;3.53;;
20709;SDS011;10516;51.518;9.864;2023-12-22T08:07:40;17.52;;;4.45;;
20709;SDS011;10516;51.518;9.864;2023-12-22T08:10:06;9.30;;;2.42;;
20709;SDS011;10516;51.518;9.864;2023-12-22T08:12:31;16.20;;;3.55;;
20709;SDS011;10516;51.518;9.864;2023-12-22T08:14:57;13.95;;;3.53;;
20709;SDS011;10516;51.518;9.864;2023-12-22T08:17:23;10.95;;;3.15;;
20709;SDS011;10516;51.518;9.864;2023-12-22T08:19:49;8.25;;;2.08;;
20709;SDS011;10516;51.518;9.864;2023-12-22T08:22:14;14.20;;;3.05;;
20709;SDS011;10516;51.518;9.864;2023-12-22T08:24:42;20.60;;;3.88;;
20709;SDS011;10516;51.518;9.864;2023-12-22T08:27:08;13.65;;;3.17;;
20709;SDS011;10516;51.518;9.864;2023-12-22T08:29:33;11.85;;;2.45;;
20709;SDS011;10516;51.518;9.864;2023-12-22T08:31:59;7.22;;;1.90;;
20709;SDS011;10516;51.518;9.864;2023-12-22T08:34:25;11.85;;;3.03;;
20709;SDS011;10516;51.518;9.864;2023-12-22T08:36:51;11.13;;;3.00;;
20709;SDS011;10516;51.518;9.864;2023-12-22T08:39:16;9.40;;;2.05;;
20709;SDS011;10516;51.518;9.864;2023-12-22T08:41:41;13.63;;;3.20;;
20709;SDS011;10516;51.518;9.864;2023-12-22T08:44:07;15.13;;;2.42;;
20709;SDS011;10516;51.518;9.864;2023-12-22T08:46:33;11.93;;;2.80;;
20709;SDS011;10516;51.518;9.864;2023-12-22T08:48:59;16.02;;;2.78;;
20709;SDS011;10516;51.518;9.864;2023-12-22T08:51:28;19.30;;;5.70;;
20709;SDS011;10516;51.518;9.864;2023-12-22T08:53:54;10.88;;;2.40;;
20709;SDS011;10516;51.518;9.864;2023-12-22T08:56:20;19.15;;;3.67;;
20709;SDS011;10516;51.518;9.864;2023-12-22T08:58:46;10.85;;;1.80;;
20709;SDS011;10516;51.518;9.864;2023-12-22T09:01:15;16.65;;;3.50;;
20709;SDS011;10516;51.518;9.864;2023-12-22T09:03:41;17.75;;;3.30;;
20709;SDS011;10516;51.518;9.864;2023-12-22T09:06:11;18.98;;;3.47;;
20709;SDS011;10516;51.518;9.864;2023-12-22T09:08:38;23.92;;;3.90;;
20709;SDS011;10516;51.518;9.864;2023-12-22T09:11:03;19.33;;;3.25;;
20709;SDS011;10516;51.518;9.864;2023-12-22T09:13:29;19.70;;;4.30;;
20709;SDS011;10516;51.518;9.864;2023-12-22T09:15:56;19.02;;;3.35;;
20709;SDS011;10516;51.518;9.864;2023-12-22T09:18:22;20.50;;;4.35;;
20709;SDS011;10516;51.518;9.864;2023-12-22T09:20:48;11.82;;;3.00;;
20709;SDS011;10516;51.518;9.864;2023-12-22T09:23:13;12.48;;;3.55;;
20709;SDS011;10516;51.518;9.864;2023-12-22T09:25:39;15.82;;;3.25;;
20709;SDS011;10516;51.518;9.864;2023-12-22T09:28:05;19.92;;;3.30;;
20709;SDS011;10516;51.518;9.864;2023-12-22T09:30:31;10.23;;;2.65;;
20709;SDS011;10516;51.518;9.864;2023-12-22T09:32:56;7.10;;;1.25;;
20709;SDS011;10516;51.518;9.864;2023-12-22T09:35:22;14.25;;;3.85;;
20709;SDS011;10516;51.518;9.864;2023-12-22T09:37:49;21.00;;;3.95;;
20709;SDS011;10516;51.518;9.864;2023-12-22T09:40:15;16.73;;;3.10;;
20709;SDS011;10516;51.518;9.864;2023-12-22T09:42:40;13.48;;;2.45;;
20709;SDS011;10516;51.518;9.864;2023-12-22T09:45:07;6.80;;;1.67;;
20709;SDS011;10516;51.518;9.864;2023-12-22T09:47:35;18.33;;;2.50;;
20709;SDS011;10516;51.518;9.864;2023-12-22T09:50:03;16.08;;;4.57;;
20709;SDS011;10516;51.518;9.864;2023-12-22T09:52:30;12.73;;;2.58;;
20709;SDS011;10516;51.518;9.864;2023-12-22T09:54:59;13.68;;;2.97;;
20709;SDS011;10516;51.518;9.864;2023-12-22T09:57:25;9.38;;;2.05;;
20709;SDS011;10516;51.518;9.864;2023-12-22T09:59:53;9.68;;;3.00;;
20709;SDS011;10516;51.518;9.864;2023-12-22T10:02:19;12.88;;;2.72;;
20709;SDS011;10516;51.518;9.864;2023-12-22T10:04:44;17.90;;;3.85;;
20709;SDS011;10516;51.518;9.864;2023-12-22T10:07:10;14.85;;;3.85;;
20709;SDS011;10516;51.518;9.864;2023-12-22T10:09:38;12.77;;;2.83;;
20709;SDS011;10516;51.518;9.864;2023-12-22T10:12:04;9.82;;;2.53;;
20709;SDS011;10516;51.518;9.864;2023-12-22T10:14:31;10.90;;;2.95;;
20709;SDS011;10516;51.518;9.864;2023-12-22T10:16:58;14.07;;;2.38;;
20709;SDS011;10516;51.518;9.864;2023-12-22T10:19:24;10.52;;;3.22;;
20709;SDS011;10516;51.518;9.864;2023-12-22T10:21:49;12.88;;;2.97;;
20709;SDS011;10516;51.518;9.864;2023-12-22T10:27:12;12.88;;;2.28;;
20709;SDS011;10516;51.518;9.864;2023-12-22T10:29:40;8.63;;;2.60;;
20709;SDS011;10516;51.518;9.864;2023-12-22T10:32:06;10.40;;;3.13;;
20709;SDS011;10516;51.518;9.864;2023-12-22T10:34:33;9.73;;;2.42;;
20709;SDS011;10516;51.518;9.864;2023-12-22T10:36:59;10.43;;;3.15;;
20709;SDS011;10516;51.518;9.864;2023-12-22T10:39:29;9.23;;;2.28;;
20709;SDS011;10516;51.518;9.864;2023-12-22T10:41:58;10.50;;;3.10;;
20709;SDS011;10516;51.518;9.864;2023-12-22T10:44:24;5.18;;;1.75;;
20709;SDS011;10516;51.518;9.864;2023-12-22T10:46:50;3.60;;;1.88;;
20709;SDS011;10516;51.518;9.864;2023-12-22T10:49:16;2.60;;;1.20;;
20709;SDS011;10516;51.518;9.864;2023-12-22T10:51:41;7.70;;;1.83;;
20709;SDS011;10516;51.518;9.864;2023-12-22T10:54:07;11.98;;;2.00;;
20709;SDS011;10516;51.518;9.864;2023-12-22T10:56:33;10.15;;;2.72;;
20709;SDS011;10516;51.518;9.864;2023-12-22T10:58:59;5.60;;;2.30;;
20709;SDS011;10516;51.518;9.864;2023-12-22T11:01:28;5.88;;;1.38;;
20709;SDS011;10516;51.518;9.864;2023-12-22T11:04:01;11.13;;;2.38;;
20709;SDS011;10516;51.518;9.864;2023-12-22T11:06:32;11.45;;;1.90;;
20709;SDS011;10516;51.518;9.864;2023-12-22T11:09:00;4.30;;;1.80;;
20709;SDS011;10516;51.518;9.864;2023-12-22T11:11:30;11.82;;;3.38;;
20709;SDS011;10516;51.518;9.864;2023-12-22T11:13:59;8.05;;;2.22;;
20709;SDS011;10516;51.518;9.864;2023-12-22T11:16:25;5.95;;;1.25;;
20709;SDS011;10516;51.518;9.864;2023-12-22T11:18:53;5.45;;;1.40;;
20709;SDS011;10516;51.518;9.864;2023-12-22T11:21:23;8.15;;;1.42;;
20709;SDS011;10516;51.518;9.864;2023-12-22T11:23:49;7.03;;;1.63;;
20709;SDS011;10516;51.518;9.864;2023-12-22T11:26:16;7.43;;;2.17;;
20709;SDS011;10516;51.518;9.864;2023-12-22T11:28:44;4.35;;;2.42;;
20709;SDS011;10516;51.518;9.864;2023-12-22T11:31:10;7.82;;;1.40;;
20709;SDS011;10516;51.518;9.864;2023-12-22T11:33:37;10.23;;;2.40;;
20709;SDS011;10516;51.518;9.864;2023-12-22T11:36:08;6.45;;;2.00;;
20709;SDS011;10516;51.518;9.864;2023-12-22T11:38:33;7.47;;;2.20;;
20709;SDS011;10516;51.518;9.864;2023-12-22T11:40:59;1.52;;;1.00;;
20709;SDS011;10516;51.518;9.864;2023-12-22T11:43:26;5.18;;;1.67;;
20709;SDS011;10516;51.518;9.864;2023-12-22T11:45:52;5.80;;;2.42;;
20709;SDS011;10516;51.518;9.864;2023-12-22T11:48:17;6.10;;;2.67;;
20709;SDS011;10516;51.518;9.864;2023-12-22T11:50:43;4.97;;;1.98;;
20709;SDS011;10516;51.518;9.864;2023-12-22T11:53:23;6.25;;;2.22;;
20709;SDS011;10516;51.518;9.864;2023-12-22T11:56:05;2.90;;;1.92;;
20709;SDS011;10516;51.518;9.864;2023-12-22T11:58:46;7.38;;;2.08;;
20709;SDS011;10516;51.518;9.864;2023-12-22T12:01:24;3.28;;;1.13;;
20709;SDS011;10516;51.518;9.864;2023-12-22T12:03:51;3.65;;;1.55;;
20709;SDS011;10516;51.518;9.864;2023-12-22T12:08:54;4.18;;;1.77;;
20709;SDS011;10516;51.518;9.864;2023-12-22T12:11:20;2.85;;;1.65;;
20709;SDS011;10516;51.518;9.864;2023-12-22T12:13:46;4.80;;;2.22;;
20709;SDS011;10516;51.518;9.864;2023-12-22T12:16:13;7.15;;;1.42;;
20709;SDS011;10516;51.518;9.864;2023-12-22T12:18:40;7.97;;;1.88;;
20709;SDS011;10516;51.518;9.864;2023-12-22T12:21:10;5.53;;;1.42;;
20709;SDS011;10516;51.518;9.864;2023-12-22T12:23:36;4.55;;;2.40;;
20709;SDS011;10516;51.518;9.864;2023-12-22T12:26:02;4.55;;;1.95;;
20709;SDS011;10516;51.518;9.864;2023-12-22T12:28:28;6.43;;;2.22;;
20709;SDS011;10516;51.518;9.864;2023-12-22T12:33:30;6.18;;;2.78;;
20709;SDS011;10516;51.518;9.864;2023-12-22T12:35:57;1.95;;;1.67;;
20709;SDS011;10516;51.518;9.864;2023-12-22T12:38:28;5.25;;;2.25;;
20709;SDS011;10516;51.518;9.864;2023-12-22T12:40:58;6.82;;;2.40;;
20709;SDS011;10516;51.518;9.864;2023-12-22T12:43:24;7.70;;;2.00;;
20709;SDS011;10516;51.518;9.864;2023-12-22T12:45:51;5.25;;;1.55;;
20709;SDS011;10516;51.518;9.864;2023-12-22T12:48:17;6.35;;;2.75;;
20709;SDS011;10516;51.518;9.864;2023-12-22T12:50:43;4.55;;;1.98;;
20709;SDS011;10516;51.518;9.864;2023-12-22T12:53:08;4.60;;;1.48;;
20709;SDS011;10516;51.518;9.864;2023-12-22T12:55:33;7.25;;;3.35;;
20709;SDS011;10516;51.518;9.864;2023-12-22T12:57:59;5.30;;;1.92;;
20709;SDS011;10516;51.518;9.864;2023-12-22T13:00:25;9.30;;;2.30;;
20709;SDS011;10516;51.518;9.864;2023-12-22T13:02:53;8.57;;;1.95;;
20709;SDS011;10516;51.518;9.864;2023-12-22T13:05:23;5.78;;;1.48;;
20709;SDS011;10516;51.518;9.864;2023-12-22T13:07:49;1.92;;;1.00;;
20709;SDS011;10516;51.518;9.864;2023-12-22T13:10:22;6.25;;;1.70;;
20709;SDS011;10516;51.518;9.864;2023-12-22T13:12:48;6.95;;;2.47;;
20709;SDS011;10516;51.518;9.864;2023-12-22T13:15:15;10.88;;;2.65;;
20709;SDS011;10516;51.518;9.864;2023-12-22T13:17:41;7.30;;;2.72;;
20709;SDS011;10516;51.518;9.864;2023-12-22T13:20:07;10.00;;;3.30;;
20709;SDS011;10516;51.518;9.864;2023-12-22T13:22:33;9.30;;;2.75;;
20709;SDS011;10516;51.518;9.864;2023-12-22T13:24:58;10.52;;;3.92;;
20709;SDS011;10516;51.518;9.864;2023-12-22T13:27:24;6.55;;;3.40;;
20709;SDS011;10516;51.518;9.864;2023-12-22T13:29:49;14.18;;;5.07;;
20709;SDS011;10516;51.518;9.864;2023-12-22T13:32:20;12.95;;;2.85;;
20709;SDS011;10516;51.518;9.864;2023-12-22T13:34:53;6.97;;;2.92;;
20709;SDS011;10516;51.518;9.864;2023-12-22T13:37:19;3.00;;;1.98;;
20709;SDS011;10516;51.518;9.864;2023-12-22T13:39:49;1.90;;;1.15;;
20709;SDS011;10516;51.518;9.864;2023-12-22T13:42:18;2.67;;;1.45;;
20709;SDS011;10516;51.518;9.864;2023-12-22T13:44:46;2.67;;;1.20;;
20709;SDS011;10516;51.518;9.864;2023-12-22T13:47:17;7.78;;;3.28;;
20709;SDS011;10516;51.518;9.864;2023-12-22T13:49:44;0.95;;;0.88;;
20709;SDS011;10516;51.518;9.864;2023-12-22T13:54:52;2.75;;;1.13;;
20709;SDS011;10516;51.518;9.864;2023-12-22T13:57:20;3.70;;;1.30;;
20709;SDS011;10516;51.518;9.864;2023-12-22T13:59:47;3.17;;;1.02;;
20709;SDS011;10516;51.518;9.864;2023-12-22T14:02:12;3.85;;;1.17;;
20709;SDS011;10516;51.518;9.864;2023-12-22T14:04:38;4.07;;;1.10;;
20709;SDS011;10516;51.518;9.864;2023-12-22T14:07:03;2.50;;;0.77;;
20709;SDS011;10516;51.518;9.864;2023-12-22T14:09:28;1.25;;;0.60;;
20709;SDS011;10516;51.518;9.864;2023-12-22T14:11:57;1.52;;;0.82;;
20709;SDS011;10516;51.518;9.864;2023-12-22T14:14:23;3.35;;;1.27;;
20709;SDS011;10516;51.518;9.864;2023-12-22T14:16:48;1.33;;;0.68;;
20709;SDS011;10516;51.518;9.864;2023-12-22T14:19:13;5.20;;;1.00;;
20709;SDS011;10516;51.518;9.864;2023-12-22T14:21:39;2.58;;;0.85;;
20709;SDS011;10516;51.518;9.864;2023-12-22T14:24:04;1.88;;;1.13;;
20709;SDS011;10516;51.518;9.864;2023-12-22T14:26:30;3.33;;;1.25;;
20709;SDS011;10516;51.518;9.864;2023-12-22T14:28:55;4.10;;;1.75;;
20709;SDS011;10516;51.518;9.864;2023-12-22T14:31:21;4.53;;;1.70;;
20709;SDS011;10516;51.518;9.864;2023-12-22T14:33:46;6.38;;;2.00;;
20709;SDS011;10516;51.518;9.864;2023-12-22T14:36:12;4.30;;;2.13;;
20709;SDS011;10516;51.518;9.864;2023-12-22T14:38:37;4.60;;;1.67;;
20709;SDS011;10516;51.518;9.864;2023-12-22T14:41:03;4.85;;;1.98;;
20709;SDS011;10516;51.518;9.864;2023-12-22T14:43:28;5.38;;;1.75;;
20709;SDS011;10516;51.518;9.864;2023-12-22T14:45:53;2.88;;;1.50;;
20709;SDS011;10516;51.518;9.864;2023-12-22T14:48:19;0.98;;;0.85;;
20709;SDS011;10516;51.518;9.864;2023-12-22T14:50:44;2.45;;;0.75;;